Aeroporto :
LOGIN :

Iscrizione | Disclaimer

   EN    FR    IT 

 










Sommario :    VFR   VFR Marginale   IFR   IFR Intensivo   IFR Molto Intensivo
Visibilità : 
Base nubi : 
>= 8 km
>= 3000ft
5 / 8 km
1000 / 3000 ft
1500m / 5 km
500 / 1000 ft
800 / 1500m
200 / 500 ft
< 800m
< 200 ft
Simboli :   Temporali  Nebbia  Neve Forte  Precipitazioni Forti  Vento > 20 kt
SIGMETs :   Varie  Temporali  Ghiacco  Turbolenza  Onda orograficha  Ceneri Vulcaniche






- Altitudine del aeroporto : 863 ft
- Codice IATA : ZAZ


LEZG - Zaragoza Aragon

ULTIMO METAR :
  • 071400Z 10009KT 070V130 9999 BKN020 BKN030 16/12 Q1024

METARs OBSOLETI :
  • 071330Z 10009KT 050V130 9999 BKN015 OVC022 16/12 Q1024
  • 071300Z 09010KT 9000 OVC015 15/12 Q1025
  • 071230Z 08009KT 050V110 9000 OVC014 14/12 Q1025
  • 071200Z 07008KT 9000 OVC012 14/12 Q1025
  • 071130Z 07007KT 9000 DZ FEW010 OVC012 14/12 Q1025

TAF TAF LEZG
Valido dal 07 a 12 ore il 08 a 12 ore UTC


071100Z 0712/0812 10009KT 9999 BKN025 TX17/0712Z TN09/0806Z
PROB40
TEMPO 0712/0718 3000 RA BKN014



MetMap, La meteo Aeronautica in un colpo d'occhio ! - Copyright ORBIFLY Dicembre 2007 - Disclaimer

ORBIFLY MET'MAP TEAM :

Programmazione e sviluppo : Alexandra Zaïnal
Concezione : Baudouin d'Aumeries
Aiuto per la programmazione : Marc-Olivier Méhu
Supporto tecnico e logistico : Manuel Goepfert
Aiuto per la traduzione : Arnaldo La Scala

Contatto : metmap@orbifly.com




FONTI E CREDITI :

   NOAA